createdAt,value
2019-04-22T00:00:49.307Z,99958.83
2019-04-22T00:01:58.116Z,99955.11
2019-04-22T00:03:02.749Z,99962.73
2019-04-22T00:04:09.027Z,99964.72
2019-04-22T00:05:19.115Z,99956.27
2019-04-22T00:06:39.038Z,99955.24
2019-04-22T00:07:43.273Z,99951.85
2019-04-22T00:08:56.034Z,99953.06
2019-04-22T00:10:04.864Z,99954.55
2019-04-22T00:11:13.236Z,99953.16
2019-04-22T00:12:14.607Z,99948.75
2019-04-22T00:13:18.613Z,99956.69
2019-04-22T00:14:17.876Z,99951.38
2019-04-22T00:15:27.249Z,99948.30
2019-04-22T00:16:47.266Z,99950.31
2019-04-22T00:19:11.552Z,99955.16
2019-04-22T00:19:57.615Z,99948.43
2019-04-22T00:21:07.216Z,99944.52
2019-04-22T00:22:07.800Z,99941.45
2019-04-22T00:23:16.957Z,99945.80
2019-04-22T00:24:19.594Z,99943.85
2019-04-22T00:25:26.526Z,99943.85
2019-04-22T00:26:37.399Z,99947.24
2019-04-22T00:27:40.579Z,99945.00
2019-04-22T00:28:49.995Z,99946.98
2019-04-22T00:31:05.058Z,99938.86
2019-04-22T00:32:14.441Z,99940.84
2019-04-22T00:33:24.489Z,99931.42
2019-04-22T00:34:30.199Z,99948.32
2019-04-22T00:35:35.378Z,99939.97
2019-04-22T00:36:41.907Z,99939.71
2019-04-22T00:37:53.743Z,99939.20
2019-04-22T00:39:03.358Z,99934.20
2019-04-22T00:39:57.438Z,99936.21
2019-04-22T00:41:05.730Z,99937.68
2019-04-22T00:42:16.452Z,99932.63
2019-04-22T00:43:19.655Z,99929.55
2019-04-22T00:44:35.293Z,99925.65
2019-04-22T00:45:33.128Z,99928.78
2019-04-22T00:46:39.701Z,99927.95
2019-04-22T00:48:02.547Z,99931.34
2019-04-22T00:48:57.940Z,99931.34
2019-04-22T00:51:06.149Z,99927.00
2019-04-22T00:52:09.271Z,99929.30
2019-04-22T00:53:16.347Z,99931.86
2019-04-22T00:54:26.064Z,99928.22
2019-04-22T00:55:25.591Z,99933.06
2019-04-22T00:56:28.290Z,99927.70
2019-04-22T00:57:34.893Z,99926.89
2019-04-22T00:58:41.232Z,99929.45
2019-04-22T00:59:55.409Z,99919.97
2019-04-22T01:00:56.077Z,99929.82
2019-04-22T01:02:00.905Z,99926.75
2019-04-22T01:03:18.054Z,99919.52
2019-04-22T01:04:20.431Z,99918.69
2019-04-22T01:05:21.937Z,99913.38
2019-04-22T01:07:30.739Z,99917.09
2019-04-22T01:08:46.832Z,99920.48
2019-04-22T01:09:46.398Z,99917.78
2019-04-22T01:10:54.099Z,99920.91
2019-04-22T01:11:56.288Z,99913.05
2019-04-22T01:13:04.883Z,99913.65
2019-04-22T01:14:09.287Z,99908.08
2019-04-22T01:15:20.835Z,99906.41
2019-04-22T01:16:23.801Z,99912.09
2019-04-22T01:17:26.981Z,99916.05
2019-04-22T01:18:31.082Z,99906.78
2019-04-22T01:19:45.083Z,99907.90
2019-04-22T01:21:00.904Z,99907.41
2019-04-22T01:22:06.803Z,99908.29
2019-04-22T01:22:52.131Z,99907.45
2019-04-22T01:23:57.696Z,99909.75
2019-04-22T01:25:03.575Z,99909.75
2019-04-22T01:26:09.911Z,99907.30
2019-04-22T01:27:11.694Z,99907.05
2019-04-22T01:28:18.070Z,99906.75
2019-04-22T01:29:22.580Z,99904.83
2019-04-22T01:30:26.624Z,99905.45
2019-04-22T01:31:25.933Z,99899.58
2019-04-22T01:32:36.104Z,99899.88
2019-04-22T01:33:42.065Z,99900.20
2019-04-22T01:34:57.994Z,99896.55
2019-04-22T01:36:08.127Z,99898.84
2019-04-22T01:37:07.600Z,99896.11
2019-04-22T01:38:18.973Z,99902.87
2019-04-22T01:39:31.947Z,99900.38
2019-04-22T01:40:42.920Z,99902.41
2019-04-22T01:42:58.339Z,99903.88
2019-04-22T01:44:10.975Z,99899.72
2019-04-22T01:45:12.093Z,99896.95
2019-04-22T01:46:08.250Z,99898.67
2019-04-22T01:47:23.235Z,99898.98
2019-04-22T01:48:28.477Z,99898.98
2019-04-22T01:49:27.297Z,99899.56
2019-04-22T01:50:30.745Z,99898.47
2019-04-22T01:51:54.791Z,99896.50
2019-04-22T01:52:46.933Z,99897.39
2019-04-22T01:54:00.460Z,99908.63
2019-04-22T01:54:55.607Z,99898.89
2019-04-22T01:56:08.889Z,99898.32
2019-04-22T01:57:03.617Z,99894.68
2019-04-22T01:58:11.096Z,99898.62
2019-04-22T01:59:15.698Z,99897.81
2019-04-22T02:00:32.527Z,99897.30
2019-04-22T02:01:41.605Z,99897.03
2019-04-22T02:03:52.028Z,99895.36
2019-04-22T02:04:53.202Z,99896.51
2019-04-22T02:05:59.266Z,99886.41
2019-04-22T02:07:02.083Z,99890.67
2019-04-22T02:08:14.181Z,99888.17
2019-04-22T02:09:22.554Z,99888.75
2019-04-22T02:10:30.148Z,99885.38
2019-04-22T02:11:37.307Z,99884.84
2019-04-22T02:12:35.463Z,99888.86
2019-04-22T02:13:46.300Z,99887.45
2019-04-22T02:14:44.408Z,99887.19
2019-04-22T02:15:52.748Z,99887.28
2019-04-22T02:17:05.180Z,99887.28
2019-04-22T02:18:11.487Z,99877.52
2019-04-22T02:19:18.400Z,99877.83
2019-04-22T02:20:31.548Z,99876.99
2019-04-22T02:21:23.446Z,99885.42
2019-04-22T02:22:44.303Z,99882.61
2019-04-22T02:24:46.737Z,99875.12
2019-04-22T02:25:49.459Z,99875.96
2019-04-22T02:26:51.917Z,99886.09
2019-04-22T02:27:56.512Z,99881.31
2019-04-22T02:29:01.568Z,99881.05
2019-04-22T02:30:05.988Z,99873.47
2019-04-22T02:34:39.710Z,99867.91
2019-04-22T02:35:57.497Z,99870.45
2019-04-22T02:36:45.225Z,99864.00
2019-04-22T02:37:54.731Z,99867.95
2019-04-22T02:39:15.312Z,99858.17
2019-04-22T02:41:22.175Z,99865.47
2019-04-22T02:42:13.942Z,99869.11
2019-04-22T02:43:35.033Z,99854.80
2019-04-22T02:44:28.758Z,99861.83
2019-04-22T02:46:00.056Z,99862.70
2019-04-22T02:49:01.591Z,99860.25
2019-04-22T02:50:01.850Z,99853.54
2019-04-22T02:52:17.744Z,99857.50
2019-04-22T02:53:41.866Z,99860.61
2019-04-22T02:54:38.301Z,99853.91
2019-04-22T02:55:35.920Z,99853.42
2019-04-22T02:57:39.969Z,99853.68
2019-04-22T03:00:01.188Z,99852.32
2019-04-22T03:01:06.084Z,99842.50
2019-04-22T03:02:07.655Z,99843.64
2019-04-22T03:03:20.827Z,99832.41
2019-04-22T03:05:40.107Z,99835.53
2019-04-22T03:06:38.331Z,99836.94
2019-04-22T03:07:41.097Z,99836.68
2019-04-22T03:08:51.722Z,99832.82
2019-04-22T03:09:51.796Z,99829.18
2019-04-22T03:12:17.790Z,99829.23
2019-04-22T03:13:09.570Z,99828.96
2019-04-22T03:15:13.556Z,99823.66
2019-04-22T03:19:50.669Z,99814.11
2019-04-22T03:20:56.772Z,99816.66
2019-04-22T03:21:54.848Z,99816.39
2019-04-22T03:23:13.728Z,99814.46
2019-04-22T03:24:15.697Z,99814.02
2019-04-22T03:25:43.437Z,99814.59
2019-04-22T03:27:35.278Z,99816.00
2019-04-22T03:28:37.057Z,99818.23
2019-04-22T03:32:07.529Z,99805.73
2019-04-22T03:34:05.098Z,99810.81
2019-04-22T03:35:19.359Z,99806.61
2019-04-22T03:36:29.598Z,99806.89
2019-04-22T03:38:20.213Z,99802.45
2019-04-22T03:39:33.504Z,99806.66
2019-04-22T03:40:25.075Z,99803.29
2019-04-22T03:41:36.764Z,99802.80
2019-04-22T03:42:25.327Z,99805.34
2019-04-22T03:43:42.469Z,99801.70
2019-04-22T03:44:38.440Z,99799.73
2019-04-22T03:45:58.786Z,99802.27
2019-04-22T03:47:02.399Z,99794.73
2019-04-22T03:47:57.760Z,99796.71
2019-04-22T03:50:22.687Z,99796.19
2019-04-22T03:51:33.772Z,99791.48
2019-04-22T03:52:24.716Z,99797.70
2019-04-22T03:54:39.150Z,99796.34
2019-04-22T03:55:39.029Z,99789.91
2019-04-22T03:59:07.572Z,99794.11
2019-04-22T04:00:15.736Z,99788.80
2019-04-22T04:01:18.740Z,99790.78
2019-04-22T04:02:21.514Z,99787.14
2019-04-22T04:06:52.551Z,99785.52
2019-04-22T04:07:59.907Z,99788.63
2019-04-22T04:08:51.542Z,99787.48
2019-04-22T04:10:01.048Z,99789.45
2019-04-22T04:13:20.405Z,99778.33
2019-04-22T04:14:26.877Z,99778.33
2019-04-22T04:16:42.452Z,99787.30
2019-04-22T04:17:44.467Z,99787.60
2019-04-22T04:20:10.803Z,99792.08
2019-04-22T04:21:12.497Z,99788.44
2019-04-22T04:22:16.784Z,99793.78
2019-04-22T04:23:27.193Z,99791.28
2019-04-22T04:24:42.239Z,99797.19
2019-04-22T04:25:42.880Z,99793.02
2019-04-22T04:28:52.611Z,99785.22
2019-04-22T04:30:00.198Z,99789.72
2019-04-22T04:30:45.974Z,99787.45
2019-04-22T04:32:05.346Z,99785.52
2019-04-22T04:33:06.907Z,99785.52
2019-04-22T04:34:22.031Z,99787.75
2019-04-22T04:35:28.107Z,99780.48
2019-04-22T04:37:40.949Z,99785.81
2019-04-22T04:38:38.811Z,99782.75
2019-04-22T04:39:47.029Z,99777.15
2019-04-22T04:40:48.688Z,99779.69
2019-04-22T04:42:20.276Z,99781.91
2019-04-22T04:42:58.682Z,99780.52
2019-04-22T04:44:31.721Z,99779.42
2019-04-22T04:46:24.242Z,99766.84
2019-04-22T04:47:35.372Z,99771.34
2019-04-22T04:48:39.123Z,99774.42
2019-04-22T04:49:43.905Z,99780.02
2019-04-22T04:50:38.574Z,99778.92
2019-04-22T04:53:06.335Z,99780.59
2019-04-22T04:54:08.694Z,99769.39
2019-04-22T04:56:30.370Z,99780.92
2019-04-22T04:57:23.363Z,99776.16
2019-04-22T04:59:48.340Z,99778.92
2019-04-22T05:01:49.267Z,99772.19
2019-04-22T05:02:58.442Z,99770.25
2019-04-22T05:03:57.794Z,99769.98
2019-04-22T05:05:02.935Z,99773.62
2019-04-22T05:06:09.185Z,99769.72
2019-04-22T05:14:50.550Z,99768.52
2019-04-22T05:16:14.764Z,99764.58
2019-04-22T05:17:03.980Z,99775.75
2019-04-22T05:18:14.270Z,99775.45
2019-04-22T05:19:15.974Z,99775.71
2019-04-22T05:20:42.973Z,99771.78
2019-04-22T05:22:35.690Z,99777.95
2019-04-22T05:23:40.523Z,99764.77
2019-04-22T05:24:44.082Z,99763.34
2019-04-22T05:25:41.365Z,99767.23
2019-04-22T05:26:56.738Z,99767.50
2019-04-22T05:28:03.611Z,99771.66
2019-04-22T05:29:06.569Z,99764.36
2019-04-22T05:30:23.504Z,99767.16
2019-04-22T05:31:16.105Z,99764.63
2019-04-22T05:32:24.724Z,99756.90
2019-04-22T05:33:32.312Z,99766.02
2019-04-22T05:34:35.134Z,99761.25
2019-04-22T05:35:37.972Z,99764.28
2019-04-22T05:36:47.661Z,99764.24
2019-04-22T05:37:56.667Z,99770.67
2019-04-22T05:39:01.853Z,99764.19
2019-04-22T05:40:14.977Z,99768.36
2019-04-22T05:41:14.813Z,99760.74
2019-04-22T05:42:14.269Z,99762.45
2019-04-22T05:43:21.288Z,99759.87
2019-04-22T05:44:32.523Z,99766.00
2019-04-22T05:45:31.372Z,99760.34
2019-04-22T05:46:39.543Z,99762.80
2019-04-22T05:47:46.377Z,99754.08
2019-04-22T05:48:53.863Z,99755.44
2019-04-22T05:49:54.615Z,99764.08
2019-04-22T05:51:02.409Z,99758.73
2019-04-22T05:52:11.147Z,99750.28
2019-04-22T05:53:13.759Z,99750.80
2019-04-22T05:54:22.902Z,99756.05
2019-04-22T05:55:41.967Z,99758.24
2019-04-22T05:56:37.510Z,99752.31
2019-04-22T05:57:42.671Z,99750.56
2019-04-22T05:58:56.578Z,99749.37
2019-04-22T05:59:57.308Z,99751.56
2019-04-22T06:01:31.670Z,99752.66
2019-04-22T06:02:24.051Z,99753.48
2019-04-22T06:03:20.979Z,99752.81
2019-04-22T06:04:23.165Z,99758.94
2019-04-22T06:06:36.838Z,99757.34
2019-04-22T06:07:38.534Z,99751.93
2019-04-22T06:08:51.246Z,99751.83
2019-04-22T06:10:02.344Z,99755.98
2019-04-22T06:11:00.472Z,99758.42
2019-04-22T06:11:58.870Z,99756.38
2019-04-22T06:13:13.849Z,99766.40
2019-04-22T06:14:13.938Z,99760.99
2019-04-22T06:15:24.269Z,99756.71
2019-04-22T06:16:38.021Z,99754.19
2019-04-22T06:18:52.787Z,99761.59
2019-04-22T06:19:55.904Z,99754.50
2019-04-22T06:21:00.574Z,99760.02
2019-04-22T06:22:06.424Z,99755.69
2019-04-22T06:23:12.624Z,99759.33
2019-04-22T06:25:27.817Z,99754.59
2019-04-22T06:26:40.656Z,99756.83
2019-04-22T06:27:37.143Z,99753.33
2019-04-22T06:28:40.678Z,99748.14
2019-04-22T06:29:41.488Z,99754.48
2019-04-22T06:31:00.011Z,99750.44
2019-04-22T06:32:22.312Z,99744.13
2019-04-22T06:33:13.221Z,99742.02
2019-04-22T06:35:23.781Z,99747.95
2019-04-22T06:36:27.623Z,99743.67
2019-04-22T06:37:33.978Z,99739.33
2019-04-22T06:40:59.686Z,99742.63
2019-04-22T06:41:56.530Z,99742.20
2019-04-22T06:43:05.632Z,99735.94
2019-04-22T06:44:16.097Z,99736.67
2019-04-22T06:46:20.826Z,99741.84
2019-04-22T06:47:40.176Z,99737.52
2019-04-22T06:48:29.500Z,99735.98
2019-04-22T06:49:35.532Z,99733.35
2019-04-22T06:50:48.780Z,99731.84
2019-04-22T06:52:07.777Z,99731.38
2019-04-22T06:52:57.204Z,99729.28
2019-04-22T06:54:01.731Z,99731.70
2019-04-22T06:55:13.171Z,99727.92
2019-04-22T06:56:14.275Z,99735.09
2019-04-22T06:57:24.300Z,99725.67
2019-04-22T06:58:20.128Z,99730.91
2019-04-22T06:59:33.018Z,99735.88
2019-04-22T07:00:36.609Z,99735.48
2019-04-22T07:01:43.206Z,99725.52
2019-04-22T07:03:13.797Z,99729.59
2019-04-22T07:05:00.986Z,99732.72
2019-04-22T07:06:11.199Z,99730.32
2019-04-22T07:07:12.279Z,99735.26
2019-04-22T07:08:58.076Z,99730.30
2019-04-22T07:09:33.741Z,99729.64
2019-04-22T07:10:35.055Z,99728.94
2019-04-22T07:11:36.723Z,99727.05
2019-04-22T07:12:41.820Z,99721.77
2019-04-22T07:13:50.362Z,99722.45
2019-04-22T07:14:55.902Z,99727.37
2019-04-22T07:16:20.797Z,99721.24
2019-04-22T07:17:07.345Z,99717.70
2019-04-22T07:18:18.518Z,99724.84
2019-04-22T07:19:22.820Z,99721.89
2019-04-22T07:21:30.583Z,99722.74
2019-04-22T07:22:43.605Z,99716.96
2019-04-22T07:23:53.089Z,99721.36
2019-04-22T07:24:56.131Z,99720.60
2019-04-22T07:25:52.177Z,99711.22
2019-04-22T07:27:04.659Z,99719.80
2019-04-22T07:28:11.250Z,99708.66
2019-04-22T07:29:17.582Z,99700.11
2019-04-22T07:30:22.042Z,99710.77
2019-04-22T07:31:45.060Z,99706.34
2019-04-22T07:32:53.725Z,99703.34
2019-04-22T07:33:37.820Z,99701.05
2019-04-22T07:34:50.380Z,99704.18
2019-04-22T07:36:59.009Z,99700.78
2019-04-22T07:38:06.150Z,99700.59
2019-04-22T07:39:09.680Z,99698.20
2019-04-22T07:40:13.796Z,99701.91
2019-04-22T07:41:25.572Z,99697.55
2019-04-22T07:42:26.242Z,99697.36
2019-04-22T07:43:41.129Z,99700.00
2019-04-22T07:44:38.495Z,99699.94
2019-04-22T07:45:45.714Z,99697.50
2019-04-22T07:46:59.291Z,99706.62
2019-04-22T07:48:02.615Z,99690.17
2019-04-22T07:49:01.921Z,99691.30
2019-04-22T07:50:13.130Z,99685.48
2019-04-22T07:51:15.491Z,99692.34
2019-04-22T07:52:23.198Z,99693.66
2019-04-22T07:53:21.660Z,99695.47
2019-04-22T07:54:39.689Z,99689.16
2019-04-22T07:55:38.911Z,99692.95
2019-04-22T07:56:48.733Z,99688.27
2019-04-22T07:58:05.069Z,99685.03
2019-04-22T07:58:55.601Z,99682.83
2019-04-22T08:00:03.055Z,99684.89
2019-04-22T08:01:10.172Z,99677.48
2019-04-22T08:02:16.031Z,99675.27
2019-04-22T08:04:34.440Z,99669.16
2019-04-22T08:06:46.085Z,99674.53
2019-04-22T08:07:49.247Z,99673.97
2019-04-22T08:08:58.390Z,99671.54
2019-04-22T08:11:08.596Z,99657.17
2019-04-22T08:12:06.656Z,99660.72
2019-04-22T08:13:21.159Z,99661.02
2019-04-22T08:14:30.078Z,99658.79
2019-04-22T08:15:32.358Z,99656.36
2019-04-22T08:16:38.139Z,99651.54
2019-04-22T08:18:47.429Z,99656.79
2019-04-22T08:19:55.979Z,99653.14
2019-04-22T08:22:21.407Z,99651.33
2019-04-22T08:23:16.430Z,99655.03
2019-04-22T08:24:26.651Z,99646.42
2019-04-22T08:25:24.760Z,99644.30
2019-04-22T08:26:32.209Z,99647.64
2019-04-22T08:27:41.393Z,99649.06
2019-04-22T08:28:47.827Z,99649.69
2019-04-22T08:29:59.813Z,99642.00
2019-04-22T08:30:59.686Z,99642.27
2019-04-22T08:32:01.170Z,99643.09
2019-04-22T08:33:18.707Z,99646.08
2019-04-22T08:35:29.575Z,99636.88
2019-04-22T08:37:47.541Z,99633.36
2019-04-22T08:38:53.959Z,99638.33
2019-04-22T08:40:03.889Z,99630.29
2019-04-22T08:42:34.786Z,99620.11
2019-04-22T08:43:36.484Z,99630.16
2019-04-22T08:44:54.850Z,99630.38
2019-04-22T08:45:44.347Z,99626.36
2019-04-22T08:46:48.895Z,99627.39
2019-04-22T08:47:47.911Z,99628.08
2019-04-22T08:50:07.648Z,99611.50
2019-04-22T08:51:15.074Z,99614.34
2019-04-22T08:52:26.067Z,99607.43
2019-04-22T08:53:29.187Z,99601.97
2019-04-22T08:54:31.212Z,99599.55
2019-04-22T08:55:45.066Z,99604.75
2019-04-22T08:56:45.667Z,99606.13
2019-04-22T08:58:11.252Z,99598.19
2019-04-22T08:58:57.379Z,99602.40
2019-04-22T09:00:02.376Z,99601.52
2019-04-22T09:01:15.459Z,99593.58
2019-04-22T09:02:20.199Z,99594.38
2019-04-22T09:03:18.784Z,99596.23
2019-04-22T09:04:16.634Z,99591.68
2019-04-22T09:07:02.446Z,99587.09
2019-04-22T09:07:46.543Z,99589.45
2019-04-22T09:08:55.184Z,99577.56
2019-04-22T09:09:55.771Z,99577.27
2019-04-22T09:11:03.627Z,99573.94
2019-04-22T09:12:07.663Z,99576.95
2019-04-22T09:13:14.543Z,99570.98
2019-04-22T09:14:26.640Z,99579.00
2019-04-22T09:15:30.872Z,99570.55
2019-04-22T09:17:41.339Z,99565.81
2019-04-22T09:18:48.674Z,99557.67
2019-04-22T09:19:55.920Z,99565.47
2019-04-22T09:21:08.863Z,99559.73
2019-04-22T09:22:08.366Z,99554.77
2019-04-22T09:23:21.628Z,99560.27
2019-04-22T09:24:16.742Z,99561.10
2019-04-22T09:25:16.673Z,99554.56
2019-04-22T09:26:34.717Z,99549.84
2019-04-22T09:27:39.912Z,99550.86
2019-04-22T09:28:44.338Z,99548.58
2019-04-22T09:29:53.720Z,99550.16
2019-04-22T09:30:56.881Z,99540.55
2019-04-22T09:32:06.894Z,99544.95
2019-04-22T09:33:09.932Z,99534.42
2019-04-22T09:34:14.050Z,99537.20
2019-04-22T09:35:16.025Z,99535.83
2019-04-22T09:36:29.388Z,99532.91
2019-04-22T09:37:34.555Z,99528.91
2019-04-22T09:38:38.404Z,99528.35
2019-04-22T09:39:41.056Z,99522.98
2019-04-22T09:40:46.923Z,99525.28
2019-04-22T09:41:53.871Z,99521.27
2019-04-22T09:43:17.098Z,99514.06
2019-04-22T09:44:02.410Z,99520.03
2019-04-22T09:45:13.068Z,99514.23
2019-04-22T09:46:22.718Z,99511.26
2019-04-22T09:47:25.911Z,99515.88
2019-04-22T09:48:41.740Z,99498.24
2019-04-22T09:49:44.563Z,99498.24
2019-04-22T09:50:48.070Z,99510.61
2019-04-22T09:51:54.007Z,99505.16
2019-04-22T09:52:54.914Z,99504.41
2019-04-22T09:54:12.507Z,99508.98
2019-04-22T09:56:13.677Z,99506.89
2019-04-22T09:57:21.144Z,99501.82
2019-04-22T09:58:23.540Z,99500.00
2019-04-22T09:59:32.232Z,99492.75
2019-04-22T10:00:46.171Z,99492.97
2019-04-22T10:01:55.104Z,99492.97
2019-04-22T10:02:55.907Z,99488.69
2019-04-22T10:05:07.518Z,99483.11
2019-04-22T10:06:16.469Z,99480.29
2019-04-22T10:07:19.828Z,99477.08
2019-04-22T10:08:24.592Z,99478.00
2019-04-22T10:09:42.413Z,99478.45
2019-04-22T10:10:35.027Z,99476.91
2019-04-22T10:11:47.066Z,99455.69
2019-04-22T10:12:44.852Z,99458.21
2019-04-22T10:13:54.198Z,99458.21
2019-04-22T10:14:54.229Z,99457.72
2019-04-22T10:16:13.089Z,99456.92
2019-04-22T10:17:06.700Z,99458.41
2019-04-22T10:18:19.320Z,99451.92
2019-04-22T10:19:23.160Z,99447.45
2019-04-22T10:20:32.767Z,99448.96
2019-04-22T10:22:46.030Z,99440.11
2019-04-22T10:23:50.710Z,99433.02
2019-04-22T10:24:56.899Z,99434.52
2019-04-22T10:26:04.586Z,99435.39
2019-04-22T10:27:01.992Z,99438.27
2019-04-22T10:28:14.867Z,99426.86
2019-04-22T10:29:18.351Z,99426.52
2019-04-22T10:30:33.576Z,99419.42
2019-04-22T10:32:39.916Z,99416.23
2019-04-22T10:33:38.383Z,99421.95
2019-04-22T10:34:36.029Z,99411.32
2019-04-22T10:35:32.951Z,99410.50
2019-04-22T10:36:37.896Z,99402.52
2019-04-22T10:37:43.597Z,99409.84
2019-04-22T10:38:48.681Z,99405.55
2019-04-22T10:39:58.562Z,99404.94
2019-04-22T10:40:58.877Z,99402.94
2019-04-22T10:42:03.047Z,99402.34
2019-04-22T10:43:09.601Z,99400.95
2019-04-22T10:44:15.303Z,99394.66
2019-04-22T10:45:21.968Z,99388.77
2019-04-22T10:46:26.395Z,99393.08
2019-04-22T10:47:31.973Z,99394.76
2019-04-22T10:48:36.703Z,99392.92
2019-04-22T10:49:42.457Z,99389.27
2019-04-22T10:50:48.797Z,99389.69
2019-04-22T10:51:53.047Z,99384.16
2019-04-22T10:52:59.370Z,99380.71
2019-04-22T10:54:05.210Z,99383.58
2019-04-22T10:55:11.597Z,99370.48
2019-04-22T10:56:16.956Z,99387.27
2019-04-22T10:57:23.924Z,99378.46
2019-04-22T10:58:28.616Z,99368.66
2019-04-22T10:59:34.361Z,99371.35
2019-04-22T11:00:39.738Z,99362.34
2019-04-22T11:01:44.518Z,99369.33
2019-04-22T11:02:49.904Z,99361.75
2019-04-22T11:03:55.555Z,99367.69
2019-04-22T11:04:59.720Z,99367.91
2019-04-22T11:06:05.453Z,99363.59
2019-04-22T11:07:12.769Z,99356.84
2019-04-22T11:08:26.064Z,99350.89
2019-04-22T11:09:23.480Z,99352.95
2019-04-22T11:10:46.826Z,99345.56
2019-04-22T11:11:45.541Z,99346.98
2019-04-22T11:12:41.467Z,99349.08
2019-04-22T11:13:47.479Z,99342.70
2019-04-22T11:14:51.876Z,99340.44
2019-04-22T11:15:56.174Z,99337.77
2019-04-22T11:17:02.368Z,99337.97
2019-04-22T11:18:07.403Z,99339.61
2019-04-22T11:19:11.936Z,99332.83
2019-04-22T11:20:17.533Z,99332.83
2019-04-22T11:21:23.234Z,99338.17
2019-04-22T11:22:31.332Z,99332.64
2019-04-22T11:23:34.358Z,99333.03
2019-04-22T11:24:39.148Z,99326.06
2019-04-22T11:25:43.923Z,99327.09
2019-04-22T11:26:49.310Z,99329.36
2019-04-22T11:27:53.783Z,99324.05
2019-04-22T11:28:59.398Z,99326.70
2019-04-22T11:30:05.786Z,99326.95
2019-04-22T11:31:10.504Z,99322.61
2019-04-22T11:32:14.962Z,99324.25
2019-04-22T11:33:20.647Z,99319.73
2019-04-22T11:34:25.037Z,99321.39
2019-04-22T11:35:29.893Z,99314.64
2019-04-22T11:36:34.578Z,99312.78
2019-04-22T11:37:38.841Z,99312.18
2019-04-22T11:38:49.754Z,99314.44
2019-04-22T11:40:04.616Z,99316.70
2019-04-22T11:40:57.820Z,99321.59
2019-04-22T11:42:02.406Z,99324.67
2019-04-22T11:43:07.984Z,99322.84
2019-04-22T11:44:12.321Z,99315.27
2019-04-22T11:45:17.378Z,99315.27
2019-04-22T11:46:23.095Z,99313.83
2019-04-22T11:47:27.523Z,99313.19
2019-04-22T11:48:31.771Z,99311.34
2019-04-22T11:49:36.253Z,99305.00
2019-04-22T11:50:41.907Z,99312.38
2019-04-22T11:51:47.855Z,99310.33
2019-04-22T11:52:53.136Z,99302.93
2019-04-22T11:53:58.677Z,99309.89
2019-04-22T11:55:04.347Z,99304.59
2019-04-22T11:56:08.957Z,99301.91
2019-04-22T11:57:13.141Z,99296.35
2019-04-22T11:58:17.333Z,99299.84
2019-04-22T11:59:22.635Z,99301.88
2019-04-22T12:00:28.468Z,99296.55
2019-04-22T12:01:33.019Z,99298.42
2019-04-22T12:02:38.713Z,99294.72
2019-04-22T12:03:44.231Z,99302.09
2019-04-22T12:04:49.751Z,99294.11
2019-04-22T12:05:55.451Z,99294.08
2019-04-22T12:07:00.222Z,99295.52
2019-04-22T12:08:05.095Z,99291.22
2019-04-22T12:09:12.221Z,99287.13
2019-04-22T12:10:28.544Z,99288.59
2019-04-22T12:11:26.293Z,99282.86
2019-04-22T12:12:31.929Z,99284.29
2019-04-22T12:13:36.186Z,99284.05
2019-04-22T12:14:40.418Z,99279.78
2019-04-22T12:15:44.961Z,99277.53
2019-04-22T12:16:49.737Z,99279.17
2019-04-22T12:17:55.251Z,99272.83
2019-04-22T12:19:00.876Z,99275.05
2019-04-22T12:20:10.452Z,99280.98
2019-04-22T12:21:15.286Z,99260.70
2019-04-22T12:22:20.947Z,99276.69
2019-04-22T12:23:25.299Z,99269.30
2019-04-22T12:24:30.252Z,99266.44
2019-04-22T12:25:47.686Z,99274.84
2019-04-22T12:26:40.489Z,99271.78
2019-04-22T12:27:45.305Z,99265.42
2019-04-22T12:28:50.993Z,99267.70
2019-04-22T12:29:56.625Z,99256.44
2019-04-22T12:31:01.646Z,99258.50
2019-04-22T12:32:07.405Z,99258.52
2019-04-22T12:33:14.542Z,99256.27
2019-04-22T12:34:17.570Z,99256.06
2019-04-22T12:35:22.143Z,99252.98
2019-04-22T12:36:26.665Z,99257.91
2019-04-22T12:37:39.896Z,99256.68
2019-04-22T12:38:37.764Z,99245.82
2019-04-22T12:39:43.318Z,99242.12
2019-04-22T12:40:56.435Z,99238.86
2019-04-22T12:41:56.217Z,99234.55
2019-04-22T12:43:04.128Z,99236.99
2019-04-22T12:44:07.540Z,99240.30
2019-04-22T12:45:12.183Z,99236.19
2019-04-22T12:46:16.511Z,99231.08
2019-04-22T12:47:24.378Z,99232.31
2019-04-22T12:48:28.619Z,99223.50
2019-04-22T12:49:36.639Z,99232.72
2019-04-22T12:50:43.447Z,99224.11
2019-04-22T12:51:45.350Z,99221.25
2019-04-22T12:52:58.880Z,99228.20
2019-04-22T12:53:59.392Z,99227.59
2019-04-22T12:55:05.956Z,99226.98
2019-04-22T12:56:12.677Z,99217.34
2019-04-22T12:57:16.906Z,99216.94
2019-04-22T12:58:25.461Z,99217.75
2019-04-22T12:59:29.965Z,99211.20
2019-04-22T13:00:36.306Z,99210.38
2019-04-22T13:01:40.644Z,99213.65
2019-04-22T13:02:45.077Z,99213.65
2019-04-22T13:03:50.187Z,99203.81
2019-04-22T13:04:56.186Z,99208.95
2019-04-22T13:06:01.701Z,99194.63
2019-04-22T13:07:06.135Z,99199.53
2019-04-22T13:08:11.618Z,99195.21
2019-04-22T13:09:17.725Z,99190.31
2019-04-22T13:10:22.016Z,99191.53
2019-04-22T13:11:32.045Z,99195.61
2019-04-22T13:12:33.116Z,99187.44
2019-04-22T13:13:38.620Z,99198.08
2019-04-22T13:14:43.426Z,99189.08
2019-04-22T13:15:48.968Z,99196.86
2019-04-22T13:16:53.555Z,99187.84
2019-04-22T13:18:05.745Z,99189.27
2019-04-22T13:19:11.302Z,99187.81
2019-04-22T13:20:15.080Z,99181.50
2019-04-22T13:21:18.788Z,99178.04
2019-04-22T13:22:23.252Z,99184.39
2019-04-22T13:23:27.603Z,99174.54
2019-04-22T13:24:32.076Z,99171.26
2019-04-22T13:25:36.677Z,99171.66
2019-04-22T13:26:45.161Z,99168.00
2019-04-22T13:27:51.151Z,99171.06
2019-04-22T13:28:56.835Z,99163.89
2019-04-22T13:30:04.252Z,99166.36
2019-04-22T13:31:07.783Z,99165.33
2019-04-22T13:32:13.182Z,99157.95
2019-04-22T13:33:19.037Z,99169.02
2019-04-22T13:34:30.391Z,99166.78
2019-04-22T13:35:29.793Z,99164.94
2019-04-22T13:36:34.594Z,99160.61
2019-04-22T13:37:39.280Z,99154.69
2019-04-22T13:38:44.835Z,99165.15
2019-04-22T13:39:49.605Z,99163.89
2019-04-22T13:41:07.315Z,99157.58
2019-04-22T13:42:03.913Z,99159.20
2019-04-22T13:43:07.133Z,99157.16
2019-04-22T13:44:12.752Z,99155.52
2019-04-22T13:45:17.893Z,99159.61
2019-04-22T13:46:22.420Z,99157.98
2019-04-22T13:47:42.105Z,99145.86
2019-04-22T13:48:58.985Z,99145.86
2019-04-22T13:50:18.221Z,99144.25
2019-04-22T13:51:18.556Z,99143.62
2019-04-22T13:52:35.165Z,99150.16
2019-04-22T13:55:40.834Z,99137.89
2019-04-22T13:56:37.344Z,99144.84
2019-04-22T13:57:42.496Z,99138.70
2019-04-22T13:58:44.747Z,99140.77
2019-04-22T13:59:42.331Z,99131.75
2019-04-22T14:00:42.552Z,99137.89
2019-04-22T14:01:58.646Z,99114.16
2019-04-22T14:03:22.395Z,99123.77
2019-04-22T14:04:28.642Z,99121.13
2019-04-22T14:05:35.022Z,99112.14
2019-04-22T14:06:40.770Z,99114.61
2019-04-22T14:07:45.023Z,99109.06
2019-04-22T14:08:49.531Z,99113.77
2019-04-22T14:09:54.111Z,99114.20
2019-04-22T14:11:14.909Z,99111.33
2019-04-22T14:12:07.624Z,99112.55
2019-04-22T14:13:10.265Z,99108.05
2019-04-22T14:14:15.610Z,99108.45
2019-04-22T14:15:20.203Z,99106.42
2019-04-22T14:16:24.827Z,99102.72
2019-04-22T14:17:29.409Z,99100.88
2019-04-22T14:18:34.931Z,99103.13
2019-04-22T14:19:39.194Z,99095.16
2019-04-22T14:20:44.965Z,99102.73
2019-04-22T14:21:49.710Z,99098.23
2019-04-22T14:22:54.749Z,99094.52
2019-04-22T14:24:00.165Z,99076.53